createdAt,value
2022-08-11T00:00:53.781Z,73.12
2022-08-11T00:05:57.827Z,73.18
2022-08-11T00:11:07.396Z,72.76
2022-08-11T00:16:25.103Z,72.58
2022-08-11T00:22:01.863Z,72.05
2022-08-11T00:26:55.499Z,72.04
2022-08-11T00:32:03.192Z,72.14
2022-08-11T00:37:18.873Z,72.31
2022-08-11T00:42:55.701Z,72.39
2022-08-11T00:48:25.094Z,72.29
2022-08-11T00:53:44.103Z,71.99
2022-08-11T00:59:42.621Z,71.47
2022-08-11T01:05:08.313Z,71.08
2022-08-11T01:11:06.509Z,71.53
2022-08-11T01:16:45.684Z,72.13
2022-08-11T01:22:04.058Z,73.43
2022-08-11T01:27:32.865Z,73.79
2022-08-11T01:32:55.624Z,73.52
2022-08-11T01:38:18.695Z,73.49
2022-08-11T01:43:55.880Z,73.23
2022-08-11T01:49:29.076Z,73.65
2022-08-11T01:55:26.975Z,73.47
2022-08-11T02:00:40.551Z,73.57
2022-08-11T02:06:33.715Z,73.54
2022-08-11T02:11:39.242Z,73.68
2022-08-11T02:17:18.436Z,73.68
2022-08-11T02:24:04.225Z,74.32
2022-08-11T02:28:58.464Z,74.65
2022-08-11T02:34:28.693Z,74.77
2022-08-11T02:39:56.261Z,74.71
2022-08-11T02:45:27.226Z,74.51
2022-08-11T02:50:56.646Z,74.39
2022-08-11T02:56:44.843Z,76.16
2022-08-11T03:02:24.985Z,75.90
2022-08-11T03:07:40.494Z,76.46
2022-08-11T03:13:34.385Z,76.74
2022-08-11T03:18:59.822Z,76.42
2022-08-11T03:24:19.504Z,75.96
2022-08-11T03:29:48.140Z,76.11
2022-08-11T03:34:55.136Z,75.81
2022-08-11T03:40:07.749Z,76.99
2022-08-11T03:45:42.485Z,77.44
2022-08-11T03:50:58.690Z,76.80
2022-08-11T03:56:11.753Z,76.42
2022-08-11T04:01:46.264Z,76.01
2022-08-11T04:07:20.407Z,76.99
2022-08-11T04:12:49.058Z,76.67
2022-08-11T04:18:29.490Z,76.55
2022-08-11T04:24:35.747Z,76.83
2022-08-11T04:30:03.592Z,76.96
2022-08-11T04:35:48.658Z,76.86
2022-08-11T04:41:33.441Z,76.68
2022-08-11T04:48:01.742Z,76.60
2022-08-11T04:53:38.773Z,76.04
2022-08-11T04:59:00.586Z,75.99
2022-08-11T05:04:40.764Z,75.52
2022-08-11T05:10:16.330Z,75.10
2022-08-11T05:16:19.037Z,75.50
2022-08-11T05:21:45.276Z,74.89
2022-08-11T05:27:13.591Z,75.47
2022-08-11T05:32:37.561Z,76.00
2022-08-11T05:38:06.277Z,76.42
2022-08-11T05:43:33.039Z,76.14
2022-08-11T05:48:56.319Z,75.85
2022-08-11T05:54:29.045Z,75.16
2022-08-11T05:59:34.527Z,74.75
2022-08-11T06:04:38.746Z,74.36
2022-08-11T06:09:44.897Z,74.31
2022-08-11T06:14:54.977Z,73.59
2022-08-11T06:20:07.021Z,73.24
2022-08-11T06:25:12.561Z,73.01
2022-08-11T06:30:16.263Z,72.36
2022-08-11T06:35:37.969Z,71.50
2022-08-11T06:41:15.624Z,71.43
2022-08-11T06:46:31.643Z,71.00
2022-08-11T06:51:38.643Z,70.75
2022-08-11T06:57:28.971Z,69.86
2022-08-11T07:02:50.168Z,68.74
2022-08-11T07:08:34.444Z,68.65
2022-08-11T07:13:59.565Z,67.63
2022-08-11T07:19:26.527Z,66.57
2022-08-11T07:25:02.490Z,66.40
2022-08-11T07:30:10.836Z,65.53
2022-08-11T07:35:20.953Z,64.20
2022-08-11T07:40:25.958Z,62.86
2022-08-11T07:45:49.368Z,61.94
2022-08-11T07:51:13.744Z,60.42
2022-08-11T07:56:21.828Z,59.61
2022-08-11T08:01:57.278Z,60.06
2022-08-11T08:07:23.401Z,59.10
2022-08-11T08:12:46.769Z,58.01
2022-08-11T08:18:09.506Z,55.94
2022-08-11T08:23:33.653Z,54.97
2022-08-11T08:28:37.856Z,53.40
2022-08-11T08:33:43.036Z,50.90
2022-08-11T08:38:54.357Z,50.10
2022-08-11T08:44:27.809Z,49.81
2022-08-11T08:49:50.942Z,49.63
2022-08-11T08:55:01.477Z,48.13
2022-08-11T09:00:08.911Z,46.72
2022-08-11T09:05:19.886Z,46.51
2022-08-11T09:10:23.951Z,47.94
2022-08-11T09:15:28.575Z,45.31
2022-08-11T09:20:35.441Z,45.81
2022-08-11T09:25:57.287Z,44.67
2022-08-11T09:31:02.889Z,45.51
2022-08-11T09:36:27.056Z,45.66
2022-08-11T09:42:01.249Z,45.99
2022-08-11T09:46:59.699Z,47.15
2022-08-11T09:52:09.857Z,47.24
2022-08-11T09:57:32.317Z,46.74
2022-08-11T10:02:46.387Z,46.00
2022-08-11T10:07:53.724Z,44.31
2022-08-11T10:13:04.568Z,42.52
2022-08-11T10:18:35.017Z,43.26
2022-08-11T10:24:00.319Z,42.36
2022-08-11T10:29:33.438Z,41.83
2022-08-11T10:34:54.477Z,41.15
2022-08-11T10:40:02.186Z,39.39
2022-08-11T10:45:27.206Z,38.99
2022-08-11T10:50:50.588Z,40.05
2022-08-11T10:56:13.767Z,41.30
2022-08-11T11:01:16.918Z,42.55
2022-08-11T11:06:51.223Z,41.51
2022-08-11T11:12:40.232Z,40.34
2022-08-11T11:18:02.159Z,43.42
2022-08-11T11:23:11.609Z,41.78
2022-08-11T11:29:10.628Z,39.07
2022-08-11T11:34:52.808Z,38.70
2022-08-11T11:39:58.624Z,36.54
2022-08-11T11:45:04.635Z,36.62
2022-08-11T11:50:09.528Z,37.37
2022-08-11T11:55:13.216Z,37.81
2022-08-11T12:00:38.259Z,36.88
2022-08-11T12:05:45.272Z,38.72
2022-08-11T12:11:12.960Z,37.66
2022-08-11T12:16:33.684Z,40.18
2022-08-11T12:23:27.789Z,35.72
2022-08-11T12:28:33.528Z,34.23
2022-08-11T12:33:41.270Z,35.56
2022-08-11T12:38:51.862Z,33.87
2022-08-11T12:44:24.771Z,32.96
2022-08-11T12:49:54.275Z,33.68
2022-08-11T12:55:12.538Z,32.68
2022-08-11T13:00:37.151Z,32.46
2022-08-11T13:05:45.156Z,33.08
2022-08-11T13:11:11.208Z,31.53
2022-08-11T13:16:15.447Z,31.84
2022-08-11T13:21:20.539Z,32.78
2022-08-11T13:26:36.941Z,32.38
2022-08-11T13:31:50.138Z,31.40
2022-08-11T13:36:58.217Z,30.20
2022-08-11T13:42:03.868Z,29.03
2022-08-11T13:47:10.393Z,30.50
2022-08-11T13:52:17.043Z,30.66
2022-08-11T13:58:19.331Z,30.43
2022-08-11T14:02:50.847Z,29.66
2022-08-11T14:08:02.101Z,29.72
2022-08-11T14:13:42.290Z,29.67
2022-08-11T14:18:54.611Z,29.32
2022-08-11T14:24:01.259Z,29.49
2022-08-11T14:29:21.157Z,29.58
2022-08-11T14:34:30.002Z,28.84
2022-08-11T14:39:38.611Z,29.39
2022-08-11T14:45:15.531Z,29.63
2022-08-11T14:50:27.136Z,29.57
2022-08-11T14:55:55.132Z,28.92
2022-08-11T15:01:32.845Z,29.66
2022-08-11T15:06:37.496Z,29.24
2022-08-11T15:12:00.970Z,28.98
2022-08-11T15:17:12.065Z,30.44
2022-08-11T15:22:34.321Z,30.11
2022-08-11T15:27:59.438Z,30.09
2022-08-11T15:33:27.329Z,30.55
2022-08-11T15:38:36.435Z,30.31
2022-08-11T15:44:08.189Z,30.41
2022-08-11T15:50:13.196Z,30.38
2022-08-11T15:55:02.405Z,29.95
2022-08-11T16:00:26.553Z,30.13
2022-08-11T16:05:57.750Z,30.17
2022-08-11T16:11:03.925Z,30.85
2022-08-11T16:16:15.343Z,31.18
2022-08-11T16:21:36.205Z,31.50
2022-08-11T16:27:10.384Z,30.90
2022-08-11T16:32:17.897Z,31.77
2022-08-11T16:37:42.197Z,31.41
2022-08-11T16:43:11.066Z,31.75
2022-08-11T16:48:35.263Z,32.01
2022-08-11T16:54:00.090Z,32.26
2022-08-11T16:59:18.401Z,32.08
2022-08-11T17:05:11.269Z,33.11
2022-08-11T17:10:56.489Z,33.40
2022-08-11T17:16:09.481Z,34.52
2022-08-11T17:22:01.547Z,35.31
2022-08-11T17:27:08.299Z,36.31
2022-08-11T17:32:56.030Z,37.37
2022-08-11T17:38:18.474Z,39.78
2022-08-11T17:43:40.418Z,42.28
2022-08-11T17:48:47.881Z,43.97
2022-08-11T17:54:24.360Z,44.86
2022-08-11T17:59:49.306Z,45.82
2022-08-11T18:04:55.033Z,46.44
2022-08-11T18:10:18.565Z,47.12
2022-08-11T18:15:50.062Z,47.85
2022-08-11T18:21:18.746Z,48.29
2022-08-11T18:26:44.398Z,48.70
2022-08-11T18:32:09.151Z,49.24
2022-08-11T18:37:38.107Z,49.67
2022-08-11T18:43:03.753Z,50.21
2022-08-11T18:48:40.247Z,51.06
2022-08-11T18:54:12.105Z,51.62
2022-08-11T18:59:41.455Z,52.58
2022-08-11T19:05:05.068Z,52.72
2022-08-11T19:10:28.736Z,53.36
2022-08-11T19:15:52.188Z,54.20
2022-08-11T19:21:15.978Z,54.73
2022-08-11T19:26:39.367Z,54.88
2022-08-11T19:32:03.573Z,55.65
2022-08-11T19:37:28.434Z,56.33
2022-08-11T19:42:51.801Z,56.58
2022-08-11T19:48:31.314Z,57.50
2022-08-11T19:53:55.733Z,57.85
2022-08-11T19:59:19.015Z,58.22
2022-08-11T20:04:41.775Z,58.17
2022-08-11T20:10:06.867Z,58.63
2022-08-11T20:15:30.992Z,59.44
2022-08-11T20:20:54.295Z,60.09
2022-08-11T20:26:34.836Z,60.17
2022-08-11T20:31:58.059Z,60.86
2022-08-11T20:37:23.101Z,61.06
2022-08-11T20:42:47.968Z,61.13
2022-08-11T20:55:01.591Z,62.55
2022-08-11T21:00:39.376Z,62.62
2022-08-11T21:06:10.581Z,62.38
2022-08-11T21:11:36.295Z,62.34
2022-08-11T21:17:04.493Z,62.59
2022-08-11T21:23:05.605Z,62.94
2022-08-11T21:28:30.977Z,63.09
2022-08-11T21:33:54.158Z,63.24
2022-08-11T21:39:16.994Z,63.56
2022-08-11T21:44:42.877Z,63.73
2022-08-11T21:50:06.459Z,63.81
2022-08-11T21:55:29.852Z,64.21
2022-08-11T22:00:53.211Z,65.07
2022-08-11T22:06:16.718Z,65.06
2022-08-11T22:11:40.099Z,65.18
2022-08-11T22:17:01.844Z,65.50
2022-08-11T22:22:26.246Z,65.51
2022-08-11T22:27:49.537Z,65.92
2022-08-11T22:33:12.717Z,65.93
2022-08-11T22:38:39.645Z,65.94
2022-08-11T22:44:01.838Z,67.07
2022-08-11T22:49:25.693Z,67.89
2022-08-11T22:54:49.376Z,68.18
2022-08-11T23:00:13.166Z,67.99
2022-08-11T23:05:37.884Z,67.39
2022-08-11T23:11:01.466Z,67.72
2022-08-11T23:16:24.027Z,67.35
2022-08-11T23:21:48.243Z,66.96
2022-08-11T23:27:10.900Z,68.28
2022-08-11T23:32:33.561Z,68.54
2022-08-11T23:37:56.228Z,68.58
2022-08-11T23:43:22.881Z,68.85
2022-08-11T23:48:50.058Z,68.93
2022-08-11T23:54:12.320Z,68.53
2022-08-11T23:59:36.201Z,68.58
